createdAt,value
2022-12-22T00:01:30.090Z,2.83
2022-12-22T00:03:56.633Z,2.87
2022-12-22T00:06:23.121Z,2.73
2022-12-22T00:08:49.443Z,2.93
2022-12-22T00:11:17.033Z,2.77
2022-12-22T00:13:43.332Z,3.07
2022-12-22T00:16:09.912Z,3.23
2022-12-22T00:18:36.657Z,3.53
2022-12-22T00:21:03.114Z,3.00
2022-12-22T00:23:29.224Z,3.47
2022-12-22T00:25:55.676Z,2.57
2022-12-22T00:28:26.178Z,2.73
2022-12-22T00:30:52.730Z,2.20
2022-12-22T00:33:19.504Z,2.17
2022-12-22T00:35:45.994Z,2.23
2022-12-22T00:38:12.785Z,2.23
2022-12-22T00:40:40.064Z,2.23
2022-12-22T00:43:06.602Z,2.37
2022-12-22T00:45:34.682Z,2.97
2022-12-22T00:48:01.732Z,3.30
2022-12-22T00:50:28.079Z,2.30
2022-12-22T00:52:55.234Z,2.83
2022-12-22T00:55:22.724Z,1.60
2022-12-22T00:57:49.378Z,2.60
2022-12-22T01:00:16.594Z,2.33
2022-12-22T01:02:45.490Z,2.70
2022-12-22T01:05:12.010Z,2.00
2022-12-22T01:07:39.367Z,1.83
2022-12-22T01:10:09.215Z,2.30
2022-12-22T01:12:37.241Z,2.57
2022-12-22T01:15:03.864Z,2.63
2022-12-22T01:17:30.263Z,2.17
2022-12-22T01:19:58.488Z,2.23
2022-12-22T01:22:27.597Z,1.83
2022-12-22T01:24:54.597Z,2.10
2022-12-22T01:27:21.002Z,1.93
2022-12-22T01:29:47.245Z,1.80
2022-12-22T01:32:13.825Z,1.90
2022-12-22T01:34:40.162Z,1.97
2022-12-22T01:37:10.367Z,2.47
2022-12-22T01:39:36.951Z,1.83
2022-12-22T01:42:03.230Z,2.10
2022-12-22T01:44:33.000Z,2.17
2022-12-22T01:47:01.472Z,2.20
2022-12-22T01:49:29.936Z,2.03
2022-12-22T01:51:55.885Z,2.27
2022-12-22T01:54:23.820Z,1.70
2022-12-22T01:56:50.125Z,2.17
2022-12-22T01:59:18.258Z,2.00
2022-12-22T02:01:44.634Z,2.00
2022-12-22T02:04:10.983Z,1.47
2022-12-22T02:06:43.010Z,1.90
2022-12-22T02:09:13.520Z,1.50
2022-12-22T02:11:45.447Z,1.90
2022-12-22T02:14:22.581Z,1.70
2022-12-22T02:16:55.275Z,2.30
2022-12-22T02:19:25.066Z,1.47
2022-12-22T02:21:54.620Z,1.70
2022-12-22T02:24:31.864Z,2.07
2022-12-22T02:27:02.322Z,1.67
2022-12-22T02:29:29.615Z,1.73
2022-12-22T02:31:57.502Z,1.50
2022-12-22T02:34:23.948Z,1.67
2022-12-22T02:36:54.619Z,1.40
2022-12-22T02:39:26.704Z,1.80
2022-12-22T02:41:59.443Z,1.30
2022-12-22T02:44:35.918Z,1.77
2022-12-22T02:47:07.834Z,1.50
2022-12-22T02:49:36.405Z,1.30
2022-12-22T02:52:06.145Z,2.20
2022-12-22T02:54:33.405Z,2.00
2022-12-22T02:57:00.402Z,1.23
2022-12-22T02:59:26.567Z,1.70
2022-12-22T03:01:54.798Z,1.30
2022-12-22T03:04:21.357Z,1.50
2022-12-22T03:06:48.335Z,1.30
2022-12-22T03:09:14.576Z,1.77
2022-12-22T03:11:40.983Z,1.53
2022-12-22T03:14:07.363Z,1.93
2022-12-22T03:16:33.814Z,1.70
2022-12-22T03:19:02.150Z,1.10
2022-12-22T03:21:28.453Z,1.57
2022-12-22T03:23:55.018Z,1.43
2022-12-22T03:26:03.890Z,1.33
2022-12-22T03:28:12.873Z,1.90
2022-12-22T03:30:22.006Z,1.70
2022-12-22T03:32:30.628Z,1.43
2022-12-22T03:34:41.276Z,1.60
2022-12-22T03:36:49.800Z,1.60
2022-12-22T03:38:58.572Z,1.50
2022-12-22T03:41:07.574Z,2.13
2022-12-22T03:43:34.794Z,1.50
2022-12-22T03:46:01.038Z,1.63
2022-12-22T03:48:09.806Z,1.97
2022-12-22T03:50:20.235Z,1.80
2022-12-22T03:52:29.483Z,1.40
2022-12-22T03:54:38.687Z,1.77
2022-12-22T03:56:47.720Z,1.80
2022-12-22T03:58:56.801Z,1.47
2022-12-22T04:01:09.290Z,1.90
2022-12-22T04:03:18.119Z,1.60
2022-12-22T04:05:28.792Z,1.60
2022-12-22T04:07:37.525Z,1.83
2022-12-22T04:10:07.415Z,1.90
2022-12-22T04:12:44.963Z,1.70
2022-12-22T04:14:53.737Z,1.93
2022-12-22T04:17:02.926Z,1.50
2022-12-22T04:19:11.777Z,1.73
2022-12-22T04:21:22.302Z,1.30
2022-12-22T04:23:30.953Z,1.93
2022-12-22T04:25:39.631Z,1.57
2022-12-22T04:27:48.449Z,1.50
2022-12-22T04:29:57.319Z,1.33
2022-12-22T04:32:06.506Z,1.10
2022-12-22T04:34:15.791Z,1.60
2022-12-22T04:36:26.546Z,1.70
2022-12-22T04:38:35.657Z,1.60
2022-12-22T04:40:44.467Z,1.50
2022-12-22T04:42:53.159Z,1.50
2022-12-22T04:45:02.208Z,1.60
2022-12-22T04:47:11.133Z,1.40
2022-12-22T04:49:20.355Z,1.37
2022-12-22T04:51:30.791Z,1.60
2022-12-22T04:53:39.914Z,1.60
2022-12-22T04:55:49.172Z,1.60
2022-12-22T04:57:58.088Z,1.20
2022-12-22T05:00:07.334Z,1.40
2022-12-22T05:02:16.536Z,1.20
2022-12-22T05:04:25.547Z,1.10
2022-12-22T05:06:36.653Z,1.40
2022-12-22T05:08:45.344Z,1.00
2022-12-22T05:10:54.244Z,1.33
2022-12-22T05:13:03.327Z,1.57
2022-12-22T05:15:12.751Z,1.00
2022-12-22T05:17:21.617Z,1.37
2022-12-22T05:19:30.989Z,1.00
2022-12-22T05:21:41.996Z,1.23
2022-12-22T05:23:51.560Z,1.50
2022-12-22T05:26:00.636Z,0.53
2022-12-22T05:28:09.574Z,1.20
2022-12-22T05:30:19.810Z,1.30
2022-12-22T05:32:29.315Z,1.57
2022-12-22T05:34:38.524Z,0.93
2022-12-22T05:36:49.445Z,1.30
2022-12-22T05:38:58.500Z,1.40
2022-12-22T05:41:07.483Z,0.90
2022-12-22T05:43:17.327Z,1.50
2022-12-22T05:45:26.178Z,1.00
2022-12-22T05:47:35.196Z,1.03
2022-12-22T05:49:44.203Z,1.37
2022-12-22T05:51:56.457Z,0.83
2022-12-22T05:54:05.255Z,1.57
2022-12-22T05:56:14.291Z,1.10
2022-12-22T05:58:23.309Z,1.30
2022-12-22T06:00:33.330Z,1.63
2022-12-22T06:02:42.667Z,1.50
2022-12-22T06:04:51.633Z,1.50
2022-12-22T06:07:01.985Z,1.60
2022-12-22T06:09:12.549Z,1.40
2022-12-22T06:11:21.378Z,1.70
2022-12-22T06:13:30.063Z,1.70
2022-12-22T06:15:38.967Z,2.03
2022-12-22T06:17:48.955Z,1.60
2022-12-22T06:19:57.938Z,1.30
2022-12-22T06:22:09.332Z,1.37
2022-12-22T06:24:18.103Z,1.80
2022-12-22T06:26:28.014Z,1.70
2022-12-22T06:28:36.826Z,1.90
2022-12-22T06:30:46.055Z,1.67
2022-12-22T06:32:54.974Z,1.60
2022-12-22T06:35:03.783Z,1.90
2022-12-22T06:37:14.323Z,1.53
2022-12-22T06:39:23.335Z,1.30
2022-12-22T06:41:50.007Z,1.80
2022-12-22T06:43:58.870Z,1.33
2022-12-22T06:46:08.019Z,1.33
2022-12-22T06:48:17.589Z,1.40
2022-12-22T06:50:26.784Z,2.03
2022-12-22T06:52:37.249Z,2.00
2022-12-22T06:54:46.588Z,1.73
2022-12-22T06:56:55.465Z,1.90
2022-12-22T06:59:04.470Z,1.40
2022-12-22T07:01:13.570Z,1.53
2022-12-22T07:03:22.361Z,1.90
2022-12-22T07:05:32.297Z,1.40
2022-12-22T07:07:42.802Z,1.47
2022-12-22T07:09:51.631Z,1.60
2022-12-22T07:12:00.707Z,1.67
2022-12-22T07:14:09.422Z,1.60
2022-12-22T07:16:18.512Z,1.50
2022-12-22T07:18:27.307Z,0.90
2022-12-22T07:20:36.363Z,1.33
2022-12-22T07:22:46.929Z,1.70
2022-12-22T07:24:56.067Z,1.40
2022-12-22T07:27:05.061Z,2.00
2022-12-22T07:29:14.187Z,1.47
2022-12-22T07:31:22.798Z,1.43
2022-12-22T07:33:31.989Z,1.63
2022-12-22T07:35:40.564Z,1.70
2022-12-22T07:37:51.614Z,1.50
2022-12-22T07:40:00.438Z,1.80
2022-12-22T07:42:26.755Z,1.60
2022-12-22T07:44:35.562Z,1.30
2022-12-22T07:46:44.469Z,1.57
2022-12-22T07:49:11.098Z,1.40
2022-12-22T07:51:20.045Z,1.70
2022-12-22T07:53:30.716Z,1.67
2022-12-22T07:55:39.351Z,1.50
2022-12-22T07:57:48.200Z,1.53
2022-12-22T07:59:57.313Z,1.70
2022-12-22T08:02:06.532Z,1.80
2022-12-22T08:04:15.841Z,1.93
2022-12-22T08:06:25.338Z,1.50
2022-12-22T08:08:35.940Z,1.70
2022-12-22T08:10:45.241Z,1.60
2022-12-22T08:12:54.516Z,1.47
2022-12-22T08:15:03.298Z,1.63
2022-12-22T08:17:12.776Z,1.57
2022-12-22T08:19:21.983Z,1.80
2022-12-22T08:21:30.575Z,1.60
2022-12-22T08:23:41.039Z,1.80
2022-12-22T08:25:51.424Z,1.80
2022-12-22T08:28:00.466Z,1.80
2022-12-22T08:30:10.296Z,1.70
2022-12-22T08:32:19.533Z,1.63
2022-12-22T08:34:28.428Z,1.93
2022-12-22T08:36:40.259Z,1.50
2022-12-22T08:38:51.131Z,1.67
2022-12-22T08:41:00.273Z,1.90
2022-12-22T08:43:10.717Z,1.70
2022-12-22T08:45:19.970Z,1.40
2022-12-22T08:47:28.869Z,1.70
2022-12-22T08:49:37.835Z,1.80
2022-12-22T08:51:47.267Z,2.10
2022-12-22T08:54:06.168Z,1.80
2022-12-22T08:56:15.517Z,1.83
2022-12-22T08:58:24.773Z,1.80
2022-12-22T09:00:33.689Z,1.50
2022-12-22T09:02:42.624Z,1.90
2022-12-22T09:04:51.533Z,1.47
2022-12-22T09:07:00.713Z,1.87
2022-12-22T09:09:11.852Z,1.87
2022-12-22T09:11:20.910Z,2.13
2022-12-22T09:13:29.599Z,2.10
2022-12-22T09:15:39.165Z,1.80
2022-12-22T09:17:48.739Z,1.50
2022-12-22T09:19:57.623Z,1.60
2022-12-22T09:22:06.412Z,1.77
2022-12-22T09:24:17.115Z,1.40
2022-12-22T09:26:27.431Z,1.40
2022-12-22T09:28:37.571Z,1.67
2022-12-22T09:30:51.094Z,1.87
2022-12-22T09:32:59.987Z,1.53
2022-12-22T09:35:09.187Z,1.47
2022-12-22T09:37:18.253Z,1.60
2022-12-22T09:39:29.662Z,1.77
2022-12-22T09:41:39.596Z,1.70
2022-12-22T09:43:48.826Z,1.73
2022-12-22T09:45:58.830Z,1.53
2022-12-22T09:48:09.423Z,0.90
2022-12-22T09:50:24.420Z,1.53
2022-12-22T09:52:43.152Z,1.67
2022-12-22T09:54:54.104Z,1.70
2022-12-22T09:57:03.968Z,1.40
2022-12-22T09:59:13.636Z,1.40
2022-12-22T10:01:35.006Z,1.40
2022-12-22T10:03:46.690Z,0.90
2022-12-22T10:05:57.237Z,1.10
2022-12-22T10:08:11.669Z,1.30
2022-12-22T10:10:27.735Z,1.50
2022-12-22T10:12:36.831Z,1.30
2022-12-22T10:14:47.362Z,0.90
2022-12-22T10:17:16.458Z,1.10
2022-12-22T10:19:25.511Z,1.27
2022-12-22T10:21:34.619Z,1.87
2022-12-22T10:23:46.830Z,1.57
2022-12-22T10:28:38.981Z,1.33
2022-12-22T10:30:47.877Z,1.27
2022-12-22T10:33:04.577Z,1.17
2022-12-22T10:35:13.377Z,2.20
2022-12-22T10:37:32.701Z,1.50
2022-12-22T10:39:42.130Z,1.17
2022-12-22T10:41:55.488Z,1.87
2022-12-22T10:44:06.697Z,0.80
2022-12-22T10:46:15.718Z,1.60
2022-12-22T10:48:28.571Z,0.80
2022-12-22T10:50:46.705Z,1.40
2022-12-22T10:52:56.961Z,1.47
2022-12-22T10:55:19.093Z,1.70
2022-12-22T10:57:31.760Z,2.67
2022-12-22T10:59:50.258Z,1.70
2022-12-22T11:02:22.642Z,1.50
2022-12-22T11:04:31.745Z,1.00
2022-12-22T11:06:40.967Z,1.77
2022-12-22T11:08:51.823Z,1.80
2022-12-22T11:11:04.640Z,1.97
2022-12-22T11:13:28.277Z,1.27
2022-12-22T11:15:41.655Z,1.13
2022-12-22T11:17:55.995Z,0.83
2022-12-22T11:20:12.530Z,1.23
2022-12-22T11:22:28.396Z,1.03
2022-12-22T11:24:41.420Z,1.50
2022-12-22T11:26:53.250Z,2.10
2022-12-22T11:29:15.909Z,1.20
2022-12-22T11:31:31.965Z,1.20
2022-12-22T11:33:45.936Z,1.40
2022-12-22T11:35:59.067Z,1.23
2022-12-22T11:38:13.039Z,0.90
2022-12-22T11:40:29.028Z,1.30
2022-12-22T11:42:46.625Z,1.23
2022-12-22T11:45:02.928Z,1.70
2022-12-22T11:47:17.432Z,1.50
2022-12-22T11:49:34.536Z,1.30
2022-12-22T11:52:01.657Z,1.00
2022-12-22T11:54:20.071Z,1.60
2022-12-22T11:56:31.643Z,1.40
2022-12-22T11:58:50.936Z,1.53
2022-12-22T12:01:15.348Z,1.40
2022-12-22T12:03:41.480Z,1.30
2022-12-22T12:06:10.986Z,1.70
2022-12-22T12:08:26.990Z,1.40
2022-12-22T12:10:37.812Z,1.50
2022-12-22T12:12:51.911Z,1.50
2022-12-22T12:15:08.576Z,1.13
2022-12-22T12:17:20.966Z,1.40
2022-12-22T12:19:50.802Z,1.80
2022-12-22T12:22:00.315Z,1.67
2022-12-22T12:24:19.887Z,1.60
2022-12-22T12:26:31.604Z,1.93
2022-12-22T12:28:45.188Z,1.37
2022-12-22T12:30:55.882Z,1.87
2022-12-22T12:33:07.652Z,2.33
2022-12-22T12:35:30.076Z,2.83
2022-12-22T12:37:40.271Z,2.30
2022-12-22T12:39:57.587Z,2.10
2022-12-22T12:42:09.425Z,1.73
2022-12-22T12:44:20.238Z,1.77
2022-12-22T12:46:54.580Z,1.70
2022-12-22T12:49:03.210Z,1.83
2022-12-22T12:51:30.226Z,1.90
2022-12-22T12:53:59.269Z,2.33
2022-12-22T12:56:11.249Z,2.20
2022-12-22T12:58:35.015Z,1.80
2022-12-22T13:00:51.190Z,1.77
2022-12-22T13:03:04.961Z,2.03
2022-12-22T13:05:16.585Z,2.63
2022-12-22T13:07:40.673Z,2.03
2022-12-22T13:10:04.370Z,1.77
2022-12-22T13:12:31.911Z,1.70
2022-12-22T13:15:01.905Z,2.13
2022-12-22T13:17:29.838Z,1.67
2022-12-22T13:19:38.891Z,2.30
2022-12-22T13:21:53.618Z,2.03
2022-12-22T13:24:23.988Z,1.80
2022-12-22T13:26:35.442Z,2.07
2022-12-22T13:28:45.334Z,2.17
2022-12-22T13:31:15.818Z,2.10
2022-12-22T13:33:26.705Z,1.97
2022-12-22T13:35:43.050Z,2.00
2022-12-22T13:37:57.543Z,2.17
2022-12-22T13:40:10.810Z,2.00
2022-12-22T13:42:20.473Z,1.80
2022-12-22T13:44:31.215Z,1.90
2022-12-22T13:46:41.974Z,2.30
2022-12-22T13:48:52.185Z,2.13
2022-12-22T13:51:02.174Z,2.27
2022-12-22T13:53:22.854Z,1.80
2022-12-22T13:55:41.629Z,2.33
2022-12-22T13:57:56.375Z,2.10
2022-12-22T14:00:08.480Z,2.37
2022-12-22T14:02:19.885Z,2.33
2022-12-22T14:04:29.206Z,2.17
2022-12-22T14:06:39.591Z,1.97
2022-12-22T14:08:49.037Z,2.40
2022-12-22T14:10:58.219Z,2.33
2022-12-22T14:13:09.730Z,2.37
2022-12-22T14:15:20.294Z,2.40
2022-12-22T14:17:32.116Z,2.37
2022-12-22T14:19:41.092Z,2.20
2022-12-22T14:21:50.662Z,2.63
2022-12-22T14:23:59.653Z,2.47
2022-12-22T14:26:10.833Z,2.43
2022-12-22T14:28:21.503Z,2.53
2022-12-22T14:30:38.015Z,1.97
2022-12-22T14:32:54.750Z,2.37
2022-12-22T14:35:03.979Z,2.60
2022-12-22T14:37:13.630Z,2.30
2022-12-22T14:39:24.795Z,2.83
2022-12-22T14:41:47.059Z,2.50
2022-12-22T14:43:55.896Z,2.60
2022-12-22T14:46:07.239Z,2.57
2022-12-22T14:48:21.591Z,2.50
2022-12-22T14:50:30.976Z,2.83
2022-12-22T14:52:45.719Z,2.83
2022-12-22T14:54:55.257Z,2.60
2022-12-22T14:57:13.351Z,3.10
2022-12-22T14:59:26.129Z,3.60
2022-12-22T15:01:35.506Z,2.67
2022-12-22T15:03:47.228Z,2.77
2022-12-22T15:05:55.827Z,3.00
2022-12-22T15:08:06.774Z,2.57
2022-12-22T15:10:17.364Z,3.20
2022-12-22T15:12:27.066Z,3.53
2022-12-22T15:14:39.065Z,2.53
2022-12-22T15:16:48.410Z,2.77
2022-12-22T15:18:58.977Z,3.40
2022-12-22T15:21:08.103Z,3.93
2022-12-22T15:23:17.530Z,3.73
2022-12-22T15:25:27.404Z,2.90
2022-12-22T15:27:36.750Z,3.37
2022-12-22T15:29:46.011Z,2.90
2022-12-22T15:31:54.920Z,3.50
2022-12-22T15:34:07.541Z,3.20
2022-12-22T15:36:16.487Z,3.20
2022-12-22T15:38:26.509Z,2.93
2022-12-22T15:40:35.682Z,3.30
2022-12-22T15:42:44.797Z,3.47
2022-12-22T15:44:53.506Z,2.90
2022-12-22T15:47:02.625Z,3.30
2022-12-22T15:49:16.535Z,3.40
2022-12-22T15:51:27.264Z,3.00
2022-12-22T15:53:36.787Z,2.90
2022-12-22T15:55:46.959Z,3.50
2022-12-22T15:57:57.689Z,3.10
2022-12-22T16:00:07.094Z,2.93
2022-12-22T16:02:16.056Z,3.20
2022-12-22T16:04:28.508Z,3.30
2022-12-22T16:06:37.750Z,3.00
2022-12-22T16:08:49.913Z,2.93
2022-12-22T16:10:59.463Z,3.60
2022-12-22T16:13:08.670Z,2.97
2022-12-22T16:15:18.112Z,3.57
2022-12-22T16:17:28.391Z,3.37
2022-12-22T16:19:39.071Z,3.83
2022-12-22T16:21:49.982Z,3.50
2022-12-22T16:24:00.529Z,3.70
2022-12-22T16:26:11.290Z,3.83
2022-12-22T16:28:21.598Z,3.50
2022-12-22T16:30:32.664Z,3.23
2022-12-22T16:32:42.844Z,3.50
2022-12-22T16:34:54.002Z,4.17
2022-12-22T16:37:03.160Z,3.33
2022-12-22T16:39:12.280Z,4.23
2022-12-22T16:41:24.225Z,4.33
2022-12-22T16:43:50.370Z,3.40
2022-12-22T16:46:00.980Z,4.07
2022-12-22T16:48:14.235Z,4.17
2022-12-22T16:50:32.489Z,4.07
2022-12-22T16:52:42.576Z,3.53
2022-12-22T16:54:52.965Z,4.07
2022-12-22T16:57:02.946Z,4.77
2022-12-22T16:59:11.718Z,4.97
2022-12-22T17:01:29.552Z,5.23
2022-12-22T17:03:41.958Z,4.73
2022-12-22T17:05:54.840Z,5.87
2022-12-22T17:08:05.089Z,4.47
2022-12-22T17:10:16.730Z,4.67
2022-12-22T17:12:27.045Z,4.60
2022-12-22T17:14:38.647Z,4.73
2022-12-22T17:16:47.866Z,5.50
2022-12-22T17:18:56.982Z,5.17
2022-12-22T17:21:07.781Z,5.47
2022-12-22T17:23:26.827Z,5.40
2022-12-22T17:25:35.947Z,5.20
2022-12-22T17:27:45.253Z,4.70
2022-12-22T17:29:55.591Z,4.73
2022-12-22T17:32:05.263Z,5.03
2022-12-22T17:34:17.644Z,5.10
2022-12-22T17:36:32.767Z,4.80
2022-12-22T17:38:42.270Z,4.80
2022-12-22T17:40:51.424Z,4.13
2022-12-22T17:43:00.470Z,4.60
2022-12-22T17:45:14.876Z,4.93
2022-12-22T17:47:31.269Z,4.87
2022-12-22T17:49:42.470Z,5.10
2022-12-22T17:51:53.092Z,5.40
2022-12-22T17:54:02.140Z,5.27
2022-12-22T17:56:11.967Z,4.83
2022-12-22T17:58:20.673Z,6.30
2022-12-22T18:00:31.092Z,6.00
2022-12-22T18:02:40.478Z,5.80
2022-12-22T18:04:50.046Z,5.93
2022-12-22T18:07:01.235Z,6.90
2022-12-22T18:09:10.900Z,5.83
2022-12-22T18:11:19.832Z,6.17
2022-12-22T18:13:28.975Z,6.33
2022-12-22T18:15:38.808Z,6.43
2022-12-22T18:17:48.227Z,6.40
2022-12-22T18:19:57.576Z,6.57
2022-12-22T18:22:08.064Z,5.90
2022-12-22T18:24:18.007Z,5.90
2022-12-22T18:26:29.217Z,5.17
2022-12-22T18:28:38.443Z,5.63
2022-12-22T18:30:47.781Z,5.80
2022-12-22T18:32:57.683Z,5.60
2022-12-22T18:35:07.273Z,6.47
2022-12-22T18:37:18.895Z,6.10
2022-12-22T18:39:27.998Z,6.30
2022-12-22T18:41:37.418Z,6.03
2022-12-22T18:43:46.755Z,5.60
2022-12-22T18:45:55.900Z,5.77
2022-12-22T18:48:05.261Z,6.07
2022-12-22T18:50:17.135Z,5.77
2022-12-22T18:52:27.680Z,6.27
2022-12-22T18:54:37.275Z,6.30
2022-12-22T18:56:46.313Z,7.23
2022-12-22T18:58:55.510Z,8.57
2022-12-22T19:01:04.855Z,11.90
2022-12-22T19:03:22.386Z,8.63
2022-12-22T19:05:32.250Z,7.10
2022-12-22T19:07:42.883Z,6.67
2022-12-22T19:09:52.405Z,5.83
2022-12-22T19:12:01.740Z,5.90
2022-12-22T19:14:17.778Z,6.00
2022-12-22T19:16:28.423Z,5.90
2022-12-22T19:18:37.405Z,6.10
2022-12-22T19:20:46.835Z,6.27
2022-12-22T19:22:57.659Z,6.17
2022-12-22T19:25:07.065Z,6.20
2022-12-22T19:27:19.383Z,5.80
2022-12-22T19:29:28.327Z,5.80
2022-12-22T19:31:38.412Z,5.73
2022-12-22T19:33:47.499Z,5.63
2022-12-22T19:35:58.231Z,5.53
2022-12-22T19:38:16.035Z,5.63
2022-12-22T19:40:26.072Z,6.80
2022-12-22T19:42:34.626Z,7.27
2022-12-22T19:44:44.283Z,7.33
2022-12-22T19:46:53.859Z,7.10
2022-12-22T19:49:03.355Z,8.23
2022-12-22T19:51:17.500Z,6.50
2022-12-22T19:53:28.678Z,6.67
2022-12-22T19:55:40.693Z,6.10
2022-12-22T19:57:51.241Z,8.88
2022-12-22T20:00:00.276Z,6.80
2022-12-22T20:02:24.314Z,6.53
2022-12-22T20:04:33.490Z,6.60
2022-12-22T20:06:42.488Z,7.37
2022-12-22T20:08:54.361Z,6.30
2022-12-22T20:11:03.468Z,6.73
2022-12-22T20:13:16.050Z,6.20
2022-12-22T20:15:26.702Z,6.23
2022-12-22T20:17:35.596Z,6.60
2022-12-22T20:19:44.804Z,6.60
2022-12-22T20:21:54.609Z,7.10
2022-12-22T20:24:06.647Z,6.30
2022-12-22T20:26:18.070Z,7.30
2022-12-22T20:28:28.265Z,6.60
2022-12-22T20:30:37.191Z,6.60
2022-12-22T20:32:46.618Z,6.80
2022-12-22T20:34:55.913Z,7.73
2022-12-22T20:37:04.840Z,6.87
2022-12-22T20:39:19.069Z,6.73
2022-12-22T20:41:29.101Z,8.13
2022-12-22T20:43:38.744Z,6.40
2022-12-22T20:45:49.291Z,6.87
2022-12-22T20:47:59.214Z,7.73
2022-12-22T20:50:18.520Z,7.77
2022-12-22T20:52:27.827Z,6.73
2022-12-22T20:54:38.977Z,7.53
2022-12-22T20:56:47.910Z,6.53
2022-12-22T20:58:57.173Z,6.57
2022-12-22T21:01:05.978Z,6.07
2022-12-22T21:03:14.990Z,6.20
2022-12-22T21:05:24.019Z,6.33
2022-12-22T21:07:33.156Z,6.13
2022-12-22T21:09:43.470Z,6.77
2022-12-22T21:11:52.855Z,6.17
2022-12-22T21:14:02.023Z,6.10
2022-12-22T21:16:12.897Z,6.90
2022-12-22T21:18:22.612Z,5.97
2022-12-22T21:20:32.309Z,6.00
2022-12-22T21:22:41.407Z,6.87
2022-12-22T21:24:52.139Z,6.83
2022-12-22T21:27:01.657Z,7.10
2022-12-22T21:29:11.591Z,7.40
2022-12-22T21:31:20.862Z,6.20
2022-12-22T21:33:29.841Z,7.60
2022-12-22T21:35:39.658Z,6.67
2022-12-22T21:37:50.061Z,7.00
2022-12-22T21:40:00.361Z,6.57
2022-12-22T21:42:09.672Z,7.27
2022-12-22T21:44:18.357Z,7.23
2022-12-22T21:46:27.313Z,7.13
2022-12-22T21:48:37.018Z,6.80
2022-12-22T21:50:45.804Z,7.73
2022-12-22T21:52:54.649Z,7.03
2022-12-22T21:55:07.599Z,7.03
2022-12-22T21:57:17.717Z,7.07
2022-12-22T21:59:26.678Z,6.33
2022-12-22T22:01:35.876Z,6.37
2022-12-22T22:03:45.910Z,5.77
2022-12-22T22:05:55.222Z,6.10
2022-12-22T22:08:05.661Z,6.60
2022-12-22T22:10:17.895Z,6.37
2022-12-22T22:12:37.396Z,6.33
2022-12-22T22:14:47.026Z,6.03
2022-12-22T22:16:56.747Z,6.40
2022-12-22T22:19:05.708Z,6.77
2022-12-22T22:21:15.461Z,8.80
2022-12-22T22:23:24.085Z,7.83
2022-12-22T22:25:34.457Z,7.17
2022-12-22T22:27:47.679Z,6.80
2022-12-22T22:29:57.019Z,6.07
2022-12-22T22:32:07.353Z,6.47
2022-12-22T22:34:16.245Z,6.83
2022-12-22T22:36:25.631Z,7.33
2022-12-22T22:38:34.540Z,6.10
2022-12-22T22:40:47.014Z,6.63
2022-12-22T22:42:57.357Z,6.60
2022-12-22T22:45:06.908Z,6.03
2022-12-22T22:47:16.057Z,6.07
2022-12-22T22:49:28.518Z,6.07
2022-12-22T22:51:38.267Z,6.57
2022-12-22T22:53:47.020Z,6.27
2022-12-22T22:55:58.548Z,6.17
2022-12-22T22:58:07.342Z,6.37
2022-12-22T23:00:18.102Z,6.13
2022-12-22T23:02:28.628Z,6.20
2022-12-22T23:04:37.946Z,6.77
2022-12-22T23:06:47.543Z,6.93
2022-12-22T23:08:57.238Z,6.10
2022-12-22T23:11:09.803Z,6.10
2022-12-22T23:13:18.528Z,5.60
2022-12-22T23:15:27.046Z,6.20
2022-12-22T23:17:36.270Z,5.57
2022-12-22T23:19:45.056Z,5.70
2022-12-22T23:21:54.195Z,5.67
2022-12-22T23:24:02.848Z,5.27
2022-12-22T23:26:13.537Z,5.47
2022-12-22T23:28:22.537Z,5.93
2022-12-22T23:30:31.747Z,5.63
2022-12-22T23:32:40.684Z,5.87
2022-12-22T23:34:50.145Z,5.80
2022-12-22T23:36:58.892Z,5.87
2022-12-22T23:39:07.712Z,5.57
2022-12-22T23:41:18.631Z,5.00
2022-12-22T23:43:27.417Z,6.17
2022-12-22T23:45:36.596Z,5.50
2022-12-22T23:47:45.315Z,4.63
2022-12-22T23:49:53.941Z,5.37
2022-12-22T23:52:03.315Z,5.93
2022-12-22T23:54:12.746Z,5.13
2022-12-22T23:56:23.543Z,5.43
2022-12-22T23:58:32.559Z,5.43
